createdAt,value
2023-02-08T06:40:54.083Z,103019.79
2023-02-08T06:43:22.273Z,103019.98
2023-02-08T06:45:51.069Z,103019.80
2023-02-08T06:48:21.813Z,103022.58
2023-02-08T06:50:57.399Z,103027.42
2023-02-08T06:53:24.901Z,103032.61
2023-02-08T06:55:52.837Z,103030.52
2023-02-08T06:58:27.002Z,103030.16
2023-02-08T07:01:00.350Z,103028.58
2023-02-08T07:03:33.774Z,103024.77
2023-02-08T07:06:13.945Z,103024.61
2023-02-08T07:08:56.167Z,103021.50
2023-02-08T07:11:30.958Z,103018.17
2023-02-08T07:13:58.406Z,103024.36
2023-02-08T07:16:26.922Z,103020.16
2023-02-08T10:13:52.519Z,102964.23
2023-02-08T10:17:13.574Z,102962.96
2023-02-08T10:20:29.636Z,102963.64
2023-02-08T10:23:40.564Z,102970.61
2023-02-08T10:30:01.964Z,102964.45
2023-02-08T10:33:35.380Z,102963.81
2023-02-08T10:39:30.709Z,102965.48
2023-02-08T10:42:04.473Z,102966.66
2023-02-08T10:45:24.733Z,102973.02
2023-02-08T10:48:06.206Z,102971.86
2023-02-08T10:51:10.487Z,102968.38
2023-02-08T10:53:51.290Z,102967.44
2023-02-08T10:56:58.241Z,102965.67
2023-02-08T10:59:35.257Z,102964.81
2023-02-08T11:02:26.821Z,102969.09
2023-02-08T11:05:47.340Z,102969.73
2023-02-08T11:08:21.340Z,102973.13
2023-02-08T11:11:11.661Z,102979.76
2023-02-08T11:13:45.044Z,102974.80
2023-02-08T11:16:21.995Z,102977.98
2023-02-08T11:19:40.451Z,102979.11
2023-02-08T11:22:17.829Z,102982.05
2023-02-08T11:24:55.071Z,102979.71
2023-02-08T11:27:53.184Z,102986.51
2023-02-08T11:30:55.475Z,102991.44
2023-02-08T11:33:39.089Z,102992.08
2023-02-08T11:36:17.320Z,102988.64
2023-02-08T11:38:50.540Z,102987.54
2023-02-08T11:41:18.886Z,102990.09
2023-02-08T11:44:15.793Z,102988.95
2023-02-08T11:46:47.749Z,102987.44
2023-02-08T11:49:42.586Z,102987.85
2023-02-08T11:52:48.319Z,102983.98
2023-02-08T11:55:36.810Z,102981.22
2023-02-08T11:58:18.009Z,102981.52
2023-02-08T12:01:08.446Z,102977.85
2023-02-08T12:03:40.502Z,102975.15
2023-02-08T12:06:52.475Z,102972.13
2023-02-08T12:09:58.713Z,102973.34
2023-02-08T12:13:00.638Z,102976.94
2023-02-08T12:16:27.419Z,102973.66
2023-02-08T12:19:24.341Z,102979.75
2023-02-08T12:22:36.824Z,102980.10
2023-02-08T12:29:50.918Z,102989.36
2023-02-08T12:33:22.214Z,102987.54
2023-02-08T12:36:56.621Z,102983.45
2023-02-08T12:40:15.482Z,102983.38
2023-02-08T12:43:24.383Z,102987.50
2023-02-08T12:46:28.285Z,102989.84
2023-02-08T12:49:54.857Z,102990.80
2023-02-08T12:52:50.771Z,102987.13
2023-02-08T12:55:42.758Z,102985.91
2023-02-08T12:59:01.780Z,102982.70
2023-02-08T13:01:59.308Z,102980.89
2023-02-08T13:04:56.406Z,102983.13
2023-02-08T13:07:52.296Z,102983.42
2023-02-08T13:10:32.154Z,102981.84
2023-02-08T13:13:33.094Z,102978.73
2023-02-08T13:16:11.191Z,102972.58
2023-02-08T13:19:21.412Z,102972.11
2023-02-08T13:21:54.211Z,102966.48
2023-02-08T13:24:43.347Z,102965.98
2023-02-08T13:27:29.341Z,102958.27
2023-02-08T13:30:21.257Z,102952.52
2023-02-08T13:32:56.274Z,102953.28
2023-02-08T13:35:46.078Z,102950.86
2023-02-08T13:38:53.003Z,102948.38
2023-02-08T13:41:40.925Z,102950.21
2023-02-08T13:44:36.705Z,102946.82
2023-02-08T13:47:34.258Z,102936.25
2023-02-08T13:50:37.182Z,102934.41
2023-02-08T13:53:22.837Z,102931.86
2023-02-08T13:56:05.647Z,102930.48
2023-02-08T13:59:03.555Z,102937.15
2023-02-08T14:01:40.620Z,102935.74
2023-02-08T14:04:37.550Z,102932.62
2023-02-08T14:07:38.879Z,102933.53
2023-02-08T14:10:34.637Z,102935.29
2023-02-08T14:13:30.821Z,102935.97
2023-02-08T14:16:49.703Z,102939.98
2023-02-08T14:19:30.956Z,102940.98
2023-02-08T14:22:13.795Z,102936.73
2023-02-08T14:26:15.457Z,102938.36
2023-02-08T14:29:24.037Z,102937.85
2023-02-08T14:32:16.608Z,102936.37
2023-02-08T14:35:26.870Z,102938.41
2023-02-08T14:38:43.467Z,102939.48
2023-02-08T14:42:02.770Z,102944.90
2023-02-08T14:45:07.515Z,102943.60
2023-02-08T14:48:30.258Z,102945.83
2023-02-08T14:51:19.802Z,102944.22
2023-02-08T14:54:21.213Z,102946.77
2023-02-08T14:57:43.620Z,102944.98
2023-02-08T15:00:34.072Z,102943.17
2023-02-08T15:03:07.925Z,102941.34
2023-02-08T15:06:18.289Z,102940.85
2023-02-08T15:09:03.570Z,102938.26
2023-02-08T15:12:11.523Z,102940.39
2023-02-08T15:14:57.695Z,102942.80
2023-02-08T15:17:48.122Z,102937.80
2023-02-08T15:24:59.929Z,102935.46
2023-02-08T15:27:34.484Z,102933.98
2023-02-08T15:30:21.021Z,102938.42
2023-02-08T15:32:53.697Z,102937.60
2023-02-08T15:35:23.913Z,102938.02
2023-02-08T15:37:58.967Z,102938.02
2023-02-08T15:44:03.245Z,102934.08
2023-02-08T15:46:32.388Z,102932.61
2023-02-08T15:49:01.111Z,102934.27
2023-02-08T15:52:08.342Z,102936.99
2023-02-08T15:54:38.267Z,102937.10
2023-02-08T15:57:36.193Z,102940.16
2023-02-08T16:00:41.272Z,102946.36
2023-02-08T16:03:27.512Z,102948.10
2023-02-08T16:06:12.776Z,102947.47
2023-02-08T16:08:53.542Z,102951.56
2023-02-08T16:11:31.115Z,102951.63
2023-02-08T16:14:50.670Z,102957.08
